createdAt,value
2023-04-01T00:00:29.416Z,6.40
2023-04-01T00:03:06.046Z,6.50
2023-04-01T00:06:27.997Z,6.60
2023-04-01T00:08:56.599Z,6.60
2023-04-01T00:11:23.649Z,6.60
2023-04-01T00:13:54.338Z,6.60
2023-04-01T00:16:23.143Z,6.70
2023-04-01T00:18:54.008Z,6.80
2023-04-01T00:21:24.538Z,6.80
2023-04-01T00:23:55.229Z,6.80
2023-04-01T00:26:23.527Z,6.70
2023-04-01T00:28:54.094Z,6.80
2023-04-01T00:31:21.978Z,6.80
2023-04-01T00:34:00.337Z,6.80
2023-04-01T00:36:36.975Z,6.80
2023-04-01T00:39:14.492Z,6.80
2023-04-01T00:41:43.858Z,6.80
2023-04-01T00:44:24.434Z,6.80
2023-04-01T00:46:54.379Z,6.80
2023-04-01T00:49:29.165Z,6.80
2023-04-01T00:52:05.367Z,6.70
2023-04-01T00:54:35.967Z,6.80
2023-04-01T00:57:38.224Z,6.90
2023-04-01T01:00:10.910Z,6.90
2023-04-01T01:02:54.678Z,7.00
2023-04-01T01:05:46.287Z,7.00
2023-04-01T01:08:57.479Z,7.00
2023-04-01T01:11:47.489Z,7.00
2023-04-01T01:14:45.184Z,7.00
2023-04-01T01:17:30.286Z,7.00
2023-04-01T01:20:26.609Z,6.90
2023-04-01T01:23:22.785Z,6.90
2023-04-01T01:26:30.257Z,6.80
2023-04-01T01:29:41.368Z,6.70
2023-04-01T01:32:29.159Z,6.70
2023-04-01T01:34:56.838Z,6.70
2023-04-01T01:37:31.230Z,6.80
2023-04-01T01:40:07.989Z,6.80
2023-04-01T01:42:46.063Z,6.80
2023-04-01T01:45:22.510Z,6.80
2023-04-01T01:47:59.300Z,6.90
2023-04-01T01:50:41.372Z,6.80
2023-04-01T01:53:15.761Z,6.80
2023-04-01T01:55:48.091Z,6.80
2023-04-01T01:58:46.359Z,6.80
2023-04-01T02:01:23.399Z,6.80
2023-04-01T02:03:56.318Z,6.90
2023-04-01T02:06:31.157Z,6.90
2023-04-01T02:09:25.662Z,6.90
2023-04-01T02:12:10.941Z,6.90
2023-04-01T02:14:53.005Z,6.90
2023-04-01T02:17:29.397Z,6.80
2023-04-01T02:20:25.724Z,6.90
2023-04-01T02:22:58.856Z,6.90
2023-04-01T02:25:45.483Z,6.90
2023-04-01T02:28:24.282Z,7.00
2023-04-01T02:30:56.560Z,7.00
2023-04-01T02:33:29.766Z,7.00
2023-04-01T02:35:58.388Z,6.90
2023-04-01T02:38:27.283Z,6.90
2023-04-01T02:41:02.251Z,6.80
2023-04-01T02:43:32.128Z,6.70
2023-04-01T02:46:05.678Z,6.60
2023-04-01T02:48:34.961Z,6.70
2023-04-01T02:51:05.706Z,6.70
2023-04-01T02:53:34.822Z,6.70
2023-04-01T02:56:07.866Z,6.70
2023-04-01T02:58:39.184Z,6.70
2023-04-01T03:01:11.705Z,6.50
2023-04-01T03:03:47.891Z,6.40
2023-04-01T03:06:18.743Z,6.40
2023-04-01T03:08:47.818Z,6.30
2023-04-01T03:11:18.141Z,6.30
2023-04-01T03:13:48.042Z,6.30
2023-04-01T03:16:19.023Z,6.30
2023-04-01T03:18:47.658Z,6.30
2023-04-01T03:21:19.638Z,6.30
2023-04-01T03:23:49.718Z,6.30
2023-04-01T03:26:25.358Z,6.40
2023-04-01T03:28:55.221Z,6.40
2023-04-01T03:31:24.702Z,6.50
2023-04-01T03:33:52.382Z,6.50
2023-04-01T03:36:22.351Z,6.50
2023-04-01T03:38:51.620Z,6.60
2023-04-01T03:41:25.542Z,6.60
2023-04-01T03:44:00.821Z,6.60
2023-04-01T03:46:29.111Z,6.60
2023-04-01T03:49:06.035Z,6.60
2023-04-01T03:51:34.923Z,6.70
2023-04-01T03:54:04.795Z,6.60
2023-04-01T03:56:35.427Z,6.60
2023-04-01T03:59:14.806Z,6.60
2023-04-01T04:01:43.497Z,6.70
2023-04-01T04:04:33.636Z,6.70
2023-04-01T04:07:03.726Z,6.70
2023-04-01T04:09:35.303Z,6.70
2023-04-01T04:12:04.317Z,6.70
2023-04-01T04:14:41.468Z,6.70
2023-04-01T04:17:15.680Z,6.80
2023-04-01T04:19:46.621Z,6.70
2023-04-01T04:22:17.995Z,6.60
2023-04-01T04:24:54.113Z,6.60
2023-04-01T04:27:21.686Z,6.60
2023-04-01T04:29:51.263Z,6.60
2023-04-01T04:32:22.458Z,6.60
2023-04-01T04:34:50.702Z,6.70
2023-04-01T04:37:19.224Z,6.70
2023-04-01T04:39:47.524Z,6.70
2023-04-01T04:42:17.332Z,6.70
2023-04-01T04:44:45.721Z,6.70
2023-04-01T04:47:15.065Z,6.70
2023-04-01T04:49:43.686Z,6.50
2023-04-01T04:52:13.117Z,6.50
2023-04-01T04:54:42.594Z,6.40
2023-04-01T04:57:13.056Z,6.30
2023-04-01T05:02:39.379Z,6.30
2023-04-01T05:05:17.251Z,6.40
2023-04-01T05:07:46.238Z,6.40
2023-04-01T05:10:16.607Z,6.40
2023-04-01T05:12:48.101Z,6.50
2023-04-01T05:15:17.355Z,6.60
2023-04-01T05:17:48.344Z,6.70
2023-04-01T05:20:19.406Z,6.80
2023-04-01T05:22:47.781Z,6.80
2023-04-01T05:25:16.389Z,7.00
2023-04-01T05:27:52.546Z,7.10
2023-04-01T05:30:22.977Z,7.20
2023-04-01T05:32:59.472Z,7.30
2023-04-01T05:35:29.926Z,7.30
2023-04-01T05:37:57.381Z,7.30
2023-04-01T05:40:25.899Z,7.40
2023-04-01T05:43:01.822Z,7.50
2023-04-01T05:45:29.317Z,7.60
2023-04-01T05:48:01.603Z,7.70
2023-04-01T05:50:30.010Z,7.70
2023-04-01T05:53:02.204Z,7.80
2023-04-01T05:55:31.335Z,7.70
2023-04-01T05:58:02.120Z,7.80
2023-04-01T06:00:30.012Z,7.90
2023-04-01T06:03:10.656Z,8.00
2023-04-01T06:05:55.443Z,8.20
2023-04-01T06:08:30.205Z,8.30
2023-04-01T06:11:18.930Z,8.30
2023-04-01T06:14:28.770Z,8.40
2023-04-01T06:17:36.262Z,8.60
2023-04-01T06:20:44.862Z,8.90
2023-04-01T06:23:29.219Z,9.10
2023-04-01T06:26:27.851Z,9.30
2023-04-01T06:29:48.066Z,9.50
2023-04-01T06:32:45.685Z,9.80
2023-04-01T06:35:49.460Z,10.50
2023-04-01T06:38:56.074Z,10.40
2023-04-01T06:41:53.589Z,10.90
2023-04-01T06:44:45.145Z,11.90
2023-04-01T06:47:44.011Z,13.20
2023-04-01T06:50:43.020Z,14.60
2023-04-01T06:53:35.041Z,15.50
2023-04-01T06:56:12.665Z,15.70
2023-04-01T06:58:59.390Z,15.70
2023-04-01T07:01:43.614Z,15.90
2023-04-01T07:04:36.503Z,16.00
2023-04-01T07:07:31.942Z,15.90
2023-04-01T07:10:08.544Z,16.00
2023-04-01T07:12:59.052Z,15.60
2023-04-01T07:15:56.045Z,15.40
2023-04-01T07:18:42.359Z,15.30
2023-04-01T07:21:45.958Z,15.30
2023-04-01T07:24:40.927Z,15.30
2023-04-01T07:27:15.368Z,14.20
2023-04-01T07:29:45.300Z,11.30
2023-04-01T07:32:46.129Z,8.80
2023-04-01T07:35:47.184Z,7.00
2023-04-01T07:38:59.594Z,6.00
2023-04-01T07:41:56.494Z,5.30
2023-04-01T07:44:41.413Z,5.10
2023-04-01T07:47:40.378Z,5.10
2023-04-01T07:50:51.241Z,5.50
2023-04-01T07:54:04.444Z,5.80
2023-04-01T07:57:05.510Z,5.70
2023-04-01T07:59:58.084Z,5.50
2023-04-01T08:03:13.135Z,5.50
2023-04-01T08:06:19.038Z,6.30
2023-04-01T08:09:42.819Z,7.50
2023-04-01T08:12:54.487Z,8.60
2023-04-01T08:16:02.906Z,9.80
2023-04-01T08:19:12.994Z,11.00
2023-04-01T08:21:58.425Z,12.10
2023-04-01T08:24:52.075Z,13.00
2023-04-01T08:27:45.129Z,14.30
2023-04-01T08:30:19.072Z,14.90
2023-04-01T08:32:59.742Z,16.00
2023-04-01T08:36:01.712Z,16.30
2023-04-01T08:38:39.734Z,16.90
2023-04-01T08:41:43.859Z,17.40
2023-04-01T08:44:55.492Z,17.40
2023-04-01T08:48:11.548Z,17.50
2023-04-01T08:51:19.544Z,17.70
2023-04-01T08:54:14.489Z,17.80
2023-04-01T08:57:15.348Z,18.00
2023-04-01T09:00:38.991Z,18.10
2023-04-01T09:03:40.831Z,18.10
2023-04-01T09:06:35.616Z,18.30
2023-04-01T09:09:40.379Z,18.20
2023-04-01T09:12:24.116Z,18.20
2023-04-01T09:15:00.518Z,18.10
2023-04-01T09:17:31.691Z,17.90
2023-04-01T09:20:11.506Z,17.90
2023-04-01T09:22:52.480Z,17.80
2023-04-01T09:25:59.304Z,18.00
2023-04-01T09:29:03.650Z,17.90
2023-04-01T09:32:12.390Z,17.80
2023-04-01T09:35:16.506Z,17.80
2023-04-01T09:38:21.096Z,17.60
2023-04-01T09:41:20.069Z,17.70
2023-04-01T09:44:13.325Z,17.90
2023-04-01T09:47:40.110Z,18.00
2023-04-01T09:50:26.776Z,18.00
2023-04-01T09:53:15.763Z,18.10
2023-04-01T09:56:17.106Z,18.20
2023-04-01T09:59:21.907Z,18.10
2023-04-01T10:02:19.245Z,18.30
2023-04-01T10:05:26.237Z,18.40
2023-04-01T10:08:14.755Z,18.50
2023-04-01T10:11:27.704Z,18.40
2023-04-01T10:14:37.433Z,18.50
2023-04-01T10:17:44.277Z,18.50
2023-04-01T10:20:27.757Z,18.50
2023-04-01T10:23:39.403Z,18.50
2023-04-01T10:26:37.094Z,16.10
2023-04-01T10:29:43.071Z,12.30
2023-04-01T10:32:44.948Z,9.50
2023-04-01T10:35:34.048Z,7.80
2023-04-01T10:38:36.606Z,6.90
2023-04-01T10:41:35.231Z,6.40
2023-04-01T10:44:48.599Z,5.90
2023-04-01T10:47:55.603Z,6.40
2023-04-01T10:50:24.834Z,8.00
2023-04-01T10:53:22.105Z,9.60
2023-04-01T10:56:23.643Z,11.00
2023-04-01T10:59:29.895Z,12.20
2023-04-01T11:02:32.833Z,13.40
2023-04-01T11:05:40.946Z,13.90
2023-04-01T11:08:45.291Z,14.50
2023-04-01T11:11:51.533Z,15.20
2023-04-01T11:14:59.902Z,15.80
2023-04-01T11:18:17.824Z,16.10
2023-04-01T11:21:14.307Z,16.20
2023-04-01T11:24:22.286Z,16.40
2023-04-01T11:26:58.069Z,16.70
2023-04-01T11:29:56.669Z,16.80
2023-04-01T11:32:55.794Z,16.90
2023-04-01T11:35:57.651Z,16.90
2023-04-01T11:39:12.428Z,16.50
2023-04-01T11:42:06.819Z,16.20
2023-04-01T11:44:42.005Z,16.30
2023-04-01T11:47:49.907Z,16.60
2023-04-01T11:50:51.181Z,16.80
2023-04-01T11:53:37.620Z,17.10
2023-04-01T11:56:30.522Z,17.20
2023-04-01T11:59:45.847Z,17.20
2023-04-01T12:02:35.075Z,17.60
2023-04-01T12:05:29.743Z,17.60
2023-04-01T12:09:03.514Z,17.60
2023-04-01T12:11:51.751Z,17.90
2023-04-01T12:14:41.488Z,18.00
2023-04-01T12:17:37.795Z,18.10
2023-04-01T12:20:34.101Z,18.30
2023-04-01T12:23:35.580Z,18.30
2023-04-01T12:26:37.776Z,18.30
2023-04-01T12:29:55.786Z,18.30
2023-04-01T12:33:21.854Z,18.20
2023-04-01T12:36:15.141Z,18.20
2023-04-01T12:39:18.441Z,18.20
2023-04-01T12:42:22.773Z,18.20
2023-04-01T12:45:23.495Z,18.30
2023-04-01T12:48:15.616Z,17.90
2023-04-01T12:51:07.874Z,17.90
2023-04-01T12:54:05.021Z,18.00
2023-04-01T12:56:42.566Z,18.10
2023-04-01T12:59:49.046Z,18.10
2023-04-01T13:02:37.061Z,18.10
2023-04-01T13:05:32.420Z,18.10
2023-04-01T13:08:35.013Z,18.00
2023-04-01T13:11:56.894Z,18.10
2023-04-01T13:14:56.147Z,18.00
2023-04-01T13:17:56.435Z,18.10
2023-04-01T13:21:09.084Z,18.10
2023-04-01T13:24:18.067Z,18.10
2023-04-01T13:27:06.986Z,18.00
2023-04-01T13:30:32.381Z,17.90
2023-04-01T13:33:10.409Z,17.80
2023-04-01T13:35:55.741Z,17.70
2023-04-01T13:38:43.942Z,17.70
2023-04-01T13:41:41.367Z,17.70
2023-04-01T13:44:50.698Z,17.60
2023-04-01T13:47:46.338Z,17.60
2023-04-01T13:51:07.498Z,17.60
2023-04-01T13:54:00.761Z,17.60
2023-04-01T13:57:10.019Z,17.60
2023-04-01T14:00:09.987Z,17.70
2023-04-01T14:03:23.044Z,17.80
2023-04-01T14:06:28.489Z,17.80
2023-04-01T14:09:09.665Z,17.90
2023-04-01T14:12:16.095Z,17.90
2023-04-01T14:15:13.424Z,17.90
2023-04-01T14:18:18.034Z,17.80
2023-04-01T14:21:07.248Z,17.80
2023-04-01T14:23:52.709Z,17.70
2023-04-01T14:27:00.933Z,17.60
2023-04-01T14:29:49.284Z,17.60
2023-04-01T14:33:07.804Z,17.60
2023-04-01T14:36:12.080Z,17.60
2023-04-01T14:39:17.906Z,17.60
2023-04-01T14:42:20.958Z,17.60
2023-04-01T14:45:27.957Z,17.40
2023-04-01T14:48:18.189Z,16.60
2023-04-01T14:50:56.949Z,16.30
2023-04-01T14:53:24.350Z,15.90
2023-04-01T14:55:58.700Z,15.80
2023-04-01T14:58:54.943Z,15.80
2023-04-01T15:01:53.380Z,15.80
2023-04-01T15:04:36.641Z,15.90
2023-04-01T15:07:35.338Z,16.00
2023-04-01T15:10:28.940Z,16.20
2023-04-01T15:13:24.502Z,16.30
2023-04-01T15:16:02.352Z,16.40
2023-04-01T15:18:41.113Z,16.10
2023-04-01T15:21:38.548Z,16.00
2023-04-01T15:24:53.735Z,15.90
2023-04-01T15:28:00.718Z,15.60
2023-04-01T15:30:58.150Z,15.70
2023-04-01T15:33:53.497Z,15.90
2023-04-01T15:36:56.680Z,15.90
2023-04-01T15:39:50.719Z,15.80
2023-04-01T15:43:17.949Z,15.60
2023-04-01T15:46:19.631Z,15.60
2023-04-01T15:49:14.706Z,15.80
2023-04-01T15:52:03.414Z,15.90
2023-04-01T15:54:59.899Z,15.90
2023-04-01T15:58:03.559Z,15.70
2023-04-01T16:00:46.547Z,15.60
2023-04-01T16:03:54.629Z,15.70
2023-04-01T16:06:44.614Z,15.80
2023-04-01T16:09:48.807Z,15.70
2023-04-01T16:12:40.921Z,15.70
2023-04-01T16:15:30.995Z,15.70
2023-04-01T16:18:37.904Z,15.60
2023-04-01T16:21:48.008Z,15.50
2023-04-01T16:24:32.088Z,15.40
2023-04-01T16:27:14.141Z,15.30
2023-04-01T16:30:18.960Z,15.00
2023-04-01T16:33:18.061Z,14.70
2023-04-01T16:36:11.313Z,14.60
2023-04-01T16:39:14.322Z,14.50
2023-04-01T16:42:08.796Z,14.40
2023-04-01T16:45:24.592Z,14.30
2023-04-01T16:48:18.316Z,14.10
2023-04-01T16:51:23.705Z,14.00
2023-04-01T16:54:16.305Z,13.80
2023-04-01T16:57:08.041Z,13.70
2023-04-01T17:00:01.718Z,13.60
2023-04-01T17:02:38.976Z,13.60
2023-04-01T17:05:14.491Z,13.50
2023-04-01T17:08:13.497Z,13.50
2023-04-01T17:10:52.264Z,13.40
2023-04-01T17:13:56.087Z,13.30
2023-04-01T17:16:57.318Z,13.30
2023-04-01T17:20:03.823Z,13.20
2023-04-01T17:22:54.840Z,13.20
2023-04-01T17:25:53.349Z,13.10
2023-04-01T17:28:51.129Z,13.10
2023-04-01T17:31:33.869Z,13.10
2023-04-01T17:34:51.623Z,13.00
2023-04-01T17:38:01.998Z,12.90
2023-04-01T17:41:09.662Z,12.90
2023-04-01T17:43:54.797Z,12.80
2023-04-01T17:46:26.347Z,12.80
2023-04-01T17:49:34.512Z,12.80
2023-04-01T17:52:34.892Z,12.80
2023-04-01T17:55:27.158Z,12.70
2023-04-01T17:58:26.431Z,12.70
2023-04-01T18:01:12.255Z,12.70
2023-04-01T18:04:35.304Z,12.70
2023-04-01T18:07:27.283Z,12.60
2023-04-01T18:10:20.487Z,12.50
2023-04-01T18:13:25.153Z,12.40
2023-04-01T18:16:26.805Z,12.30
2023-04-01T18:19:31.270Z,12.20
2023-04-01T18:22:31.866Z,12.20
2023-04-01T18:25:47.862Z,12.20
2023-04-01T18:28:59.220Z,12.20
2023-04-01T18:31:41.051Z,12.20
2023-04-01T18:34:48.899Z,12.30
2023-04-01T18:37:46.126Z,12.40
2023-04-01T18:40:37.957Z,12.40
2023-04-01T18:43:57.910Z,12.40
2023-04-01T18:46:50.508Z,12.40
2023-04-01T18:49:59.281Z,12.30
2023-04-01T18:52:47.537Z,12.20
2023-04-01T18:55:41.973Z,12.20
2023-04-01T18:58:51.729Z,12.20
2023-04-01T19:01:49.642Z,12.20
2023-04-01T19:04:38.925Z,12.20
2023-04-01T19:07:46.002Z,12.10
2023-04-01T19:10:49.935Z,12.10
2023-04-01T19:13:55.708Z,12.10
2023-04-01T19:16:53.258Z,12.10
2023-04-01T19:19:33.657Z,12.00
2023-04-01T19:22:38.064Z,12.00
2023-04-01T19:26:12.856Z,11.90
2023-04-01T19:29:01.165Z,11.80
2023-04-01T19:32:02.096Z,11.70
2023-04-01T19:35:01.555Z,11.60
2023-04-01T19:37:54.216Z,11.60
2023-04-01T19:40:51.161Z,11.60
2023-04-01T19:43:47.660Z,11.50
2023-04-01T19:46:59.643Z,11.50
2023-04-01T19:50:03.248Z,11.40
2023-04-01T19:52:53.855Z,11.40
2023-04-01T19:55:57.265Z,11.40
2023-04-01T19:58:43.908Z,11.40
2023-04-01T20:01:29.618Z,11.30
2023-04-01T20:04:37.206Z,11.30
2023-04-01T20:07:39.436Z,11.30
2023-04-01T20:10:20.366Z,11.20
2023-04-01T20:13:12.431Z,11.20
2023-04-01T20:15:47.280Z,11.20
2023-04-01T20:18:45.095Z,11.30
2023-04-01T20:21:55.303Z,11.30
2023-04-01T20:24:34.758Z,11.30
2023-04-01T20:27:27.808Z,11.30
2023-04-01T20:30:14.847Z,11.30
2023-04-01T20:33:30.331Z,11.30
2023-04-01T20:36:40.065Z,11.20
2023-04-01T20:39:48.360Z,11.20
2023-04-01T20:42:49.165Z,11.20
2023-04-01T20:45:43.709Z,11.20
2023-04-01T20:48:47.745Z,11.20
2023-04-01T20:51:38.986Z,11.20
2023-04-01T20:54:42.729Z,11.10
2023-04-01T20:57:53.218Z,11.10
2023-04-01T21:00:52.831Z,11.10
2023-04-01T21:04:02.137Z,11.10
2023-04-01T21:06:36.660Z,11.00
2023-04-01T21:09:36.079Z,11.10
2023-04-01T21:12:42.676Z,11.10
2023-04-01T21:15:43.751Z,11.10
2023-04-01T21:18:48.825Z,11.10
2023-04-01T21:22:02.452Z,11.10
2023-04-01T21:25:16.705Z,11.00
2023-04-01T21:28:16.835Z,11.00
2023-04-01T21:31:28.350Z,10.90
2023-04-01T21:34:30.464Z,10.90
2023-04-01T21:37:24.740Z,10.90
2023-04-01T21:40:08.456Z,10.80
2023-04-01T21:42:58.807Z,10.80
2023-04-01T21:46:10.295Z,10.80
2023-04-01T21:49:15.099Z,10.70
2023-04-01T21:52:32.824Z,10.70
2023-04-01T21:55:21.177Z,10.70
2023-04-01T21:58:28.047Z,10.70
2023-04-01T22:01:29.613Z,10.70
2023-04-01T22:04:37.381Z,10.60
2023-04-01T22:07:28.219Z,10.60
2023-04-01T22:10:23.105Z,10.50
2023-04-01T22:13:21.012Z,10.50
2023-04-01T22:16:36.805Z,10.40
2023-04-01T22:19:29.889Z,10.40
2023-04-01T22:22:15.499Z,10.40
2023-04-01T22:25:14.654Z,10.40
2023-04-01T22:27:51.654Z,10.30
2023-04-01T22:30:43.805Z,10.30
2023-04-01T22:33:39.058Z,10.30
2023-04-01T22:36:45.948Z,10.30
2023-04-01T22:39:45.132Z,10.30
2023-04-01T22:42:38.704Z,10.20
2023-04-01T22:45:34.670Z,10.30
2023-04-01T22:48:18.079Z,10.30
2023-04-01T22:51:29.291Z,10.30
2023-04-01T22:54:24.745Z,10.20
2023-04-01T22:57:26.650Z,10.10
2023-04-01T23:00:10.647Z,10.20
2023-04-01T23:02:48.942Z,10.10
2023-04-01T23:05:30.331Z,10.00
2023-04-01T23:08:36.718Z,10.00
2023-04-01T23:11:18.950Z,9.80
2023-04-01T23:14:20.964Z,7.80
2023-04-01T23:17:21.518Z,6.00
2023-04-01T23:20:28.400Z,4.30
2023-04-01T23:23:56.384Z,3.60
2023-04-01T23:26:28.349Z,3.10
2023-04-01T23:29:17.391Z,2.80
2023-04-01T23:32:08.529Z,2.70
2023-04-01T23:34:38.011Z,2.50
2023-04-01T23:37:15.398Z,2.40
2023-04-01T23:39:50.159Z,2.50
2023-04-01T23:42:41.913Z,2.50
2023-04-01T23:45:22.962Z,2.70
2023-04-01T23:47:57.072Z,2.80
2023-04-01T23:50:28.336Z,3.40
2023-04-01T23:53:04.247Z,4.00
2023-04-01T23:55:37.286Z,4.50
2023-04-01T23:58:14.321Z,5.10
